createdAt,value
2023-03-07T00:01:26.672Z,93.80
2023-03-07T00:03:53.574Z,93.50
2023-03-07T00:06:20.500Z,93.50
2023-03-07T00:08:53.531Z,93.20
2023-03-07T00:11:20.341Z,93.00
2023-03-07T00:13:47.169Z,92.60
2023-03-07T00:16:16.627Z,92.70
2023-03-07T00:18:44.005Z,93.50
2023-03-07T00:21:14.587Z,92.70
2023-03-07T00:23:42.743Z,92.70
2023-03-07T00:26:17.718Z,93.10
2023-03-07T00:28:46.624Z,93.70
2023-03-07T00:31:13.523Z,94.10
2023-03-07T00:33:40.577Z,95.40
2023-03-07T00:36:08.498Z,94.80
2023-03-07T00:38:35.390Z,96.10
2023-03-07T00:41:06.256Z,97.10
2023-03-07T00:43:33.239Z,97.40
2023-03-07T00:46:00.890Z,99.00
2023-03-07T00:48:27.959Z,98.90
2023-03-07T00:50:55.871Z,99.60
2023-03-07T00:53:25.165Z,99.90
2023-03-07T00:56:07.145Z,99.90
2023-03-07T00:58:37.273Z,99.90
2023-03-07T01:01:05.612Z,99.90
2023-03-07T01:03:32.786Z,99.90
2023-03-07T01:06:02.788Z,99.90
2023-03-07T01:08:30.304Z,99.90
2023-03-07T01:11:04.268Z,99.90
2023-03-07T01:13:31.556Z,99.90
2023-03-07T01:16:16.214Z,99.90
2023-03-07T01:18:43.802Z,99.90
2023-03-07T01:21:13.343Z,99.90
2023-03-07T01:23:40.948Z,99.90
2023-03-07T01:26:12.664Z,99.90
2023-03-07T01:28:40.055Z,99.90
2023-03-07T01:31:07.696Z,99.90
2023-03-07T01:33:35.107Z,99.90
2023-03-07T01:36:02.617Z,99.90
2023-03-07T01:38:34.001Z,99.90
2023-03-07T01:41:03.681Z,99.90
2023-03-07T01:43:32.171Z,99.90
2023-03-07T01:46:19.759Z,99.90
2023-03-07T01:49:13.228Z,99.90
2023-03-07T01:51:42.017Z,99.90
2023-03-07T01:54:09.389Z,99.90
2023-03-07T01:56:37.024Z,99.90
2023-03-07T01:59:04.393Z,99.90
2023-03-07T02:01:31.349Z,99.90
2023-03-07T02:04:02.360Z,99.90
2023-03-07T02:06:31.033Z,99.90
2023-03-07T02:08:57.933Z,99.90
2023-03-07T02:11:24.962Z,99.90
2023-03-07T02:13:52.758Z,99.90
2023-03-07T02:16:19.775Z,99.90
2023-03-07T02:18:48.023Z,99.90
2023-03-07T02:21:38.762Z,99.90
2023-03-07T02:24:30.747Z,99.90
2023-03-07T02:26:57.574Z,99.90
2023-03-07T02:29:24.696Z,99.90
2023-03-07T02:31:51.516Z,99.90
2023-03-07T02:34:23.600Z,99.90
2023-03-07T02:37:11.225Z,99.90
2023-03-07T02:39:39.748Z,99.90
2023-03-07T02:42:19.089Z,99.90
2023-03-07T02:45:01.459Z,99.90
2023-03-07T02:47:32.124Z,99.90
2023-03-07T02:50:00.151Z,99.90
2023-03-07T02:52:28.685Z,99.90
2023-03-07T02:54:56.153Z,99.90
2023-03-07T02:57:25.095Z,99.90
2023-03-07T02:59:52.045Z,99.90
2023-03-07T03:02:18.929Z,99.90
2023-03-07T03:04:46.583Z,99.90
2023-03-07T03:07:14.088Z,99.90
2023-03-07T03:09:40.960Z,99.90
2023-03-07T03:12:07.988Z,99.90
2023-03-07T03:14:35.912Z,99.90
2023-03-07T03:17:03.912Z,99.90
2023-03-07T03:19:30.748Z,99.90
2023-03-07T03:21:57.777Z,99.90
2023-03-07T03:24:26.234Z,99.90
2023-03-07T03:26:56.792Z,99.90
2023-03-07T03:29:25.529Z,99.90
2023-03-07T03:31:55.170Z,99.90
2023-03-07T03:34:22.726Z,99.90
2023-03-07T03:36:51.217Z,99.90
2023-03-07T03:39:18.422Z,99.90
2023-03-07T03:41:49.823Z,99.90
2023-03-07T03:44:17.947Z,99.90
2023-03-07T03:46:44.907Z,99.90
2023-03-07T03:49:13.492Z,99.90
2023-03-07T03:51:41.545Z,99.90
2023-03-07T03:54:08.754Z,99.90
2023-03-07T03:56:36.604Z,99.90
2023-03-07T03:59:03.483Z,99.90
2023-03-07T04:01:30.471Z,99.90
2023-03-07T04:03:58.057Z,99.90
2023-03-07T04:06:26.761Z,99.90
2023-03-07T04:08:53.995Z,99.90
2023-03-07T04:11:21.648Z,99.90
2023-03-07T04:13:48.756Z,99.90
2023-03-07T04:16:16.238Z,99.90
2023-03-07T04:18:43.129Z,99.90
2023-03-07T04:21:11.234Z,99.90
2023-03-07T04:23:38.947Z,99.90
2023-03-07T04:26:06.591Z,99.90
2023-03-07T04:28:45.178Z,99.90
2023-03-07T04:31:23.262Z,99.90
2023-03-07T04:33:50.812Z,99.90
2023-03-07T04:36:17.999Z,99.90
2023-03-07T04:38:45.952Z,99.90
2023-03-07T04:41:14.672Z,99.90
2023-03-07T04:43:41.774Z,99.90
2023-03-07T04:46:09.094Z,99.90
2023-03-07T04:48:36.038Z,99.90
2023-03-07T04:51:03.128Z,99.90
2023-03-07T04:53:30.294Z,99.90
2023-03-07T04:55:59.144Z,99.90
2023-03-07T04:58:27.571Z,99.90
2023-03-07T05:00:56.770Z,99.90
2023-03-07T05:03:26.245Z,99.90
2023-03-07T05:05:53.954Z,99.90
2023-03-07T05:08:21.922Z,99.90
2023-03-07T05:10:49.543Z,99.90
2023-03-07T05:13:16.405Z,99.90
2023-03-07T05:15:43.696Z,99.90
2023-03-07T05:18:10.538Z,99.90
2023-03-07T05:20:38.128Z,99.90
2023-03-07T05:23:05.093Z,99.90
2023-03-07T05:25:32.092Z,99.90
2023-03-07T05:27:58.994Z,99.90
2023-03-07T05:30:26.115Z,99.90
2023-03-07T05:32:53.035Z,99.90
2023-03-07T05:35:24.146Z,99.90
2023-03-07T05:37:53.020Z,99.90
2023-03-07T05:40:20.432Z,99.90
2023-03-07T05:42:48.438Z,99.90
2023-03-07T05:45:16.244Z,99.90
2023-03-07T05:47:43.583Z,99.90
2023-03-07T05:50:13.260Z,99.90
2023-03-07T05:52:41.031Z,99.90
2023-03-07T05:55:08.630Z,99.90
2023-03-07T05:57:35.679Z,99.90
2023-03-07T06:00:02.607Z,99.90
2023-03-07T06:02:30.048Z,99.90
2023-03-07T06:04:57.019Z,99.90
2023-03-07T06:07:23.879Z,99.90
2023-03-07T06:09:51.102Z,99.90
2023-03-07T06:12:17.934Z,99.90
2023-03-07T06:14:44.782Z,99.90
2023-03-07T06:17:11.740Z,99.90
2023-03-07T06:19:38.848Z,99.90
2023-03-07T06:22:05.898Z,99.90
2023-03-07T06:24:32.981Z,99.90
2023-03-07T06:27:00.105Z,99.90
2023-03-07T06:29:27.906Z,99.90
2023-03-07T06:31:55.199Z,99.90
2023-03-07T06:34:22.133Z,99.90
2023-03-07T06:36:49.187Z,99.90
2023-03-07T06:39:21.287Z,99.90
2023-03-07T06:41:50.883Z,99.90
2023-03-07T06:44:17.883Z,99.90
2023-03-07T06:46:45.604Z,99.90
2023-03-07T06:49:15.969Z,99.90
2023-03-07T06:51:46.312Z,99.90
2023-03-07T06:54:13.245Z,99.90
2023-03-07T06:56:40.458Z,99.90
2023-03-07T06:59:07.925Z,99.90
2023-03-07T07:01:35.870Z,99.90
2023-03-07T07:04:03.634Z,99.90
2023-03-07T07:06:30.407Z,99.90
2023-03-07T07:08:57.810Z,99.90
2023-03-07T07:11:27.977Z,99.90
2023-03-07T07:13:55.700Z,99.90
2023-03-07T07:16:23.594Z,99.90
2023-03-07T07:18:51.879Z,99.90
2023-03-07T07:21:18.977Z,99.90
2023-03-07T07:23:46.638Z,99.90
2023-03-07T07:26:14.246Z,99.90
2023-03-07T07:28:41.143Z,99.90
2023-03-07T07:31:09.325Z,99.90
2023-03-07T07:33:37.179Z,99.90
2023-03-07T07:36:05.877Z,99.90
2023-03-07T07:38:35.627Z,99.90
2023-03-07T07:41:02.454Z,99.90
2023-03-07T07:43:29.450Z,97.60
2023-03-07T07:46:09.416Z,95.90
2023-03-07T07:48:36.648Z,94.80
2023-03-07T07:51:04.432Z,93.80
2023-03-07T07:53:31.608Z,91.80
2023-03-07T07:55:58.496Z,91.40
2023-03-07T07:58:25.701Z,89.10
2023-03-07T08:00:53.157Z,87.80
2023-03-07T08:03:19.995Z,87.40
2023-03-07T08:05:48.412Z,85.60
2023-03-07T08:08:16.402Z,84.20
2023-03-07T08:10:44.298Z,83.30
2023-03-07T08:13:14.871Z,81.20
2023-03-07T08:15:41.846Z,79.50
2023-03-07T08:18:10.029Z,78.60
2023-03-07T08:20:38.061Z,77.70
2023-03-07T08:23:05.052Z,77.60
2023-03-07T08:25:32.188Z,77.40
2023-03-07T08:27:59.215Z,76.70
2023-03-07T08:30:27.409Z,77.50
2023-03-07T08:32:54.838Z,76.40
2023-03-07T08:35:21.962Z,75.00
2023-03-07T08:37:51.428Z,71.50
2023-03-07T08:40:18.403Z,72.70
2023-03-07T08:42:45.199Z,70.60
2023-03-07T08:45:12.189Z,69.70
2023-03-07T08:47:39.033Z,70.80
2023-03-07T08:50:06.305Z,70.40
2023-03-07T08:52:33.117Z,70.50
2023-03-07T08:54:59.953Z,72.30
2023-03-07T08:57:27.205Z,70.30
2023-03-07T08:59:54.223Z,70.60
2023-03-07T09:02:21.084Z,70.70
2023-03-07T09:04:48.175Z,71.80
2023-03-07T09:07:15.058Z,69.50
2023-03-07T09:09:42.028Z,71.20
2023-03-07T09:12:08.986Z,72.40
2023-03-07T09:14:35.816Z,70.60
2023-03-07T09:17:02.981Z,71.80
2023-03-07T09:19:29.819Z,70.40
2023-03-07T09:21:56.650Z,71.90
2023-03-07T09:24:23.493Z,72.50
2023-03-07T09:26:50.337Z,71.30
2023-03-07T09:29:17.193Z,73.10
2023-03-07T09:31:44.328Z,73.40
2023-03-07T09:34:11.400Z,74.30
2023-03-07T09:36:38.355Z,73.00
2023-03-07T09:39:05.320Z,73.80
2023-03-07T09:42:02.314Z,74.80
2023-03-07T09:44:57.764Z,73.50
2023-03-07T09:47:44.778Z,73.20
2023-03-07T09:50:14.259Z,73.80
2023-03-07T09:52:41.351Z,74.30
2023-03-07T09:55:13.793Z,74.70
2023-03-07T09:57:47.846Z,76.30
2023-03-07T10:00:25.560Z,74.60
2023-03-07T10:03:12.716Z,72.90
2023-03-07T10:05:48.616Z,72.30
2023-03-07T10:08:20.209Z,72.50
2023-03-07T10:10:59.982Z,71.80
2023-03-07T10:13:48.224Z,70.20
2023-03-07T10:16:56.720Z,69.80
2023-03-07T10:19:30.334Z,68.60
2023-03-07T10:22:04.905Z,68.00
2023-03-07T10:24:37.070Z,68.30
2023-03-07T10:27:13.946Z,67.30
2023-03-07T10:29:51.626Z,66.60
2023-03-07T10:32:23.403Z,67.70
2023-03-07T10:35:17.147Z,66.70
2023-03-07T10:38:04.659Z,65.60
2023-03-07T10:40:46.534Z,67.40
2023-03-07T10:43:27.608Z,64.20
2023-03-07T10:46:26.889Z,64.10
2023-03-07T10:49:14.704Z,63.70
2023-03-07T10:52:16.423Z,65.20
2023-03-07T10:54:43.463Z,63.60
2023-03-07T10:57:17.397Z,63.70
2023-03-07T10:59:47.516Z,62.00
2023-03-07T11:02:40.976Z,62.50
2023-03-07T11:05:32.862Z,62.50
2023-03-07T11:08:00.675Z,62.40
2023-03-07T11:10:40.626Z,62.00
2023-03-07T11:13:14.045Z,62.00
2023-03-07T11:15:41.100Z,62.30
2023-03-07T11:18:26.666Z,60.60
2023-03-07T11:20:53.550Z,61.20
2023-03-07T11:23:28.081Z,61.20
2023-03-07T11:25:55.909Z,59.00
2023-03-07T11:28:33.668Z,59.20
2023-03-07T11:31:09.894Z,58.80
2023-03-07T11:34:26.497Z,58.50
2023-03-07T11:37:01.003Z,58.60
2023-03-07T11:39:27.820Z,59.50
2023-03-07T11:42:04.209Z,57.90
2023-03-07T11:44:46.473Z,58.30
2023-03-07T11:47:34.997Z,57.60
2023-03-07T11:50:24.251Z,57.40
2023-03-07T11:52:54.507Z,57.80
2023-03-07T11:55:31.198Z,58.90
2023-03-07T11:58:21.259Z,58.00
2023-03-07T12:01:19.011Z,58.10
2023-03-07T12:04:12.062Z,57.40
2023-03-07T12:07:12.165Z,56.50
2023-03-07T12:10:13.609Z,56.90
2023-03-07T12:12:43.620Z,56.40
2023-03-07T12:15:31.307Z,56.20
2023-03-07T12:18:07.450Z,56.30
2023-03-07T12:20:50.346Z,57.00
2023-03-07T12:23:42.333Z,55.80
2023-03-07T12:26:17.615Z,56.10
2023-03-07T12:28:47.741Z,55.90
2023-03-07T12:31:20.470Z,57.30
2023-03-07T12:34:07.690Z,56.50
2023-03-07T12:36:37.863Z,56.90
2023-03-07T12:39:14.094Z,56.00
2023-03-07T12:41:59.507Z,56.00
2023-03-07T12:44:50.376Z,56.20
2023-03-07T12:47:48.975Z,56.20
2023-03-07T12:50:28.681Z,56.40
2023-03-07T12:53:00.232Z,55.90
2023-03-07T12:55:31.558Z,55.80
2023-03-07T12:58:06.790Z,55.80
2023-03-07T13:00:37.331Z,55.60
2023-03-07T13:03:07.249Z,55.90
2023-03-07T13:05:35.868Z,55.60
2023-03-07T13:08:02.764Z,56.10
2023-03-07T13:10:29.563Z,55.90
2023-03-07T13:12:56.338Z,56.10
2023-03-07T13:15:23.202Z,56.90
2023-03-07T13:17:49.997Z,57.00
2023-03-07T13:20:19.581Z,56.10
2023-03-07T13:22:46.414Z,57.40
2023-03-07T13:25:27.323Z,56.50
2023-03-07T13:27:58.565Z,56.90
2023-03-07T13:30:32.509Z,56.00
2023-03-07T13:33:00.081Z,55.80
2023-03-07T13:35:36.917Z,55.60
2023-03-07T13:38:31.980Z,56.10
2023-03-07T13:41:05.548Z,55.60
2023-03-07T13:43:44.754Z,55.50
2023-03-07T13:46:42.576Z,55.80
2023-03-07T13:49:09.439Z,56.00
2023-03-07T13:51:36.252Z,56.30
2023-03-07T13:54:04.514Z,56.60
2023-03-07T13:56:40.202Z,56.20
2023-03-07T13:59:10.072Z,56.20
2023-03-07T14:01:44.360Z,56.20
2023-03-07T14:04:39.385Z,56.30
2023-03-07T14:07:51.596Z,55.30
2023-03-07T14:10:30.571Z,56.50
2023-03-07T14:13:22.729Z,56.50
2023-03-07T14:16:27.093Z,56.80
2023-03-07T14:19:06.386Z,57.10
2023-03-07T14:21:54.123Z,57.40
2023-03-07T14:24:38.442Z,57.40
2023-03-07T14:27:10.822Z,57.00
2023-03-07T14:29:37.653Z,57.30
2023-03-07T14:32:04.918Z,57.30
2023-03-07T14:34:35.902Z,57.70
2023-03-07T14:37:07.162Z,57.50
2023-03-07T14:39:58.925Z,57.40
2023-03-07T14:42:49.991Z,57.40
2023-03-07T14:45:29.468Z,56.80
2023-03-07T14:48:14.186Z,56.90
2023-03-07T14:50:44.092Z,57.00
2023-03-07T14:53:19.331Z,56.80
2023-03-07T14:55:46.809Z,58.10
2023-03-07T14:58:18.241Z,56.90
2023-03-07T15:00:45.117Z,57.80
2023-03-07T15:03:12.891Z,56.90
2023-03-07T15:05:53.492Z,58.00
2023-03-07T15:08:27.141Z,57.20
2023-03-07T15:11:21.551Z,57.20
2023-03-07T15:13:53.811Z,56.90
2023-03-07T15:16:37.733Z,57.00
2023-03-07T15:19:24.814Z,57.30
2023-03-07T15:21:54.556Z,57.20
2023-03-07T15:24:42.986Z,58.50
2023-03-07T15:27:11.494Z,57.30
2023-03-07T15:29:39.347Z,57.40
2023-03-07T15:32:07.309Z,57.70
2023-03-07T15:34:38.489Z,57.70
2023-03-07T15:37:24.177Z,57.30
2023-03-07T15:40:20.081Z,57.40
2023-03-07T15:43:02.743Z,57.50
2023-03-07T15:45:33.137Z,57.70
2023-03-07T15:48:31.776Z,57.70
2023-03-07T15:51:00.152Z,57.70
2023-03-07T15:53:35.202Z,57.60
2023-03-07T15:56:21.573Z,58.00
2023-03-07T15:58:48.354Z,57.50
2023-03-07T16:01:23.872Z,57.60
2023-03-07T16:03:54.986Z,57.70
2023-03-07T16:06:38.058Z,57.50
2023-03-07T16:09:05.662Z,57.80
2023-03-07T16:11:32.882Z,57.70
2023-03-07T16:13:59.692Z,58.10
2023-03-07T16:16:28.816Z,59.40
2023-03-07T16:18:57.771Z,58.50
2023-03-07T16:21:24.906Z,58.80
2023-03-07T16:23:51.837Z,59.00
2023-03-07T16:26:21.706Z,58.90
2023-03-07T16:28:51.934Z,59.80
2023-03-07T16:31:18.987Z,59.20
2023-03-07T16:33:46.098Z,59.40
2023-03-07T16:36:14.024Z,59.60
2023-03-07T16:38:41.227Z,59.80
2023-03-07T16:41:26.278Z,60.30
2023-03-07T16:43:54.432Z,61.40
2023-03-07T16:46:21.369Z,59.80
2023-03-07T16:48:48.184Z,60.10
2023-03-07T16:51:21.007Z,60.50
2023-03-07T16:53:48.691Z,60.40
2023-03-07T16:56:26.430Z,60.70
2023-03-07T16:58:53.271Z,61.80
2023-03-07T17:01:20.183Z,62.40
2023-03-07T17:03:47.064Z,59.40
2023-03-07T17:06:14.833Z,60.90
2023-03-07T17:08:42.055Z,60.90
2023-03-07T17:11:16.254Z,61.60
2023-03-07T17:13:43.105Z,63.00
2023-03-07T17:16:13.944Z,61.30
2023-03-07T17:18:40.784Z,61.80
2023-03-07T17:21:08.759Z,62.70
2023-03-07T17:23:35.619Z,61.30
2023-03-07T17:26:02.445Z,62.00
2023-03-07T17:28:29.278Z,62.40
2023-03-07T17:30:56.111Z,62.00
2023-03-07T17:33:23.031Z,62.40
2023-03-07T17:35:50.079Z,62.00
2023-03-07T17:38:16.938Z,62.30
2023-03-07T17:40:44.235Z,62.20
2023-03-07T17:43:11.350Z,62.40
2023-03-07T17:45:38.702Z,64.30
2023-03-07T17:48:05.614Z,62.70
2023-03-07T17:50:32.397Z,64.10
2023-03-07T17:52:59.266Z,62.50
2023-03-07T17:55:26.144Z,62.50
2023-03-07T17:57:53.464Z,62.50
2023-03-07T18:00:21.167Z,62.30
2023-03-07T18:02:48.293Z,61.80
2023-03-07T18:05:15.192Z,62.30
2023-03-07T18:07:42.053Z,62.40
2023-03-07T18:10:10.089Z,62.70
2023-03-07T18:12:39.296Z,62.80
2023-03-07T18:15:16.356Z,63.00
2023-03-07T18:17:48.154Z,63.10
2023-03-07T18:20:19.572Z,62.70
2023-03-07T18:22:46.433Z,63.10
2023-03-07T18:25:14.449Z,64.70
2023-03-07T18:27:41.464Z,63.80
2023-03-07T18:30:09.307Z,64.70
2023-03-07T18:32:36.247Z,64.70
2023-03-07T18:35:03.593Z,65.60
2023-03-07T18:37:30.421Z,65.80
2023-03-07T18:39:57.281Z,65.00
2023-03-07T18:42:24.144Z,63.80
2023-03-07T18:44:54.022Z,63.80
2023-03-07T18:47:20.946Z,63.90
2023-03-07T18:49:51.284Z,64.40
2023-03-07T18:52:18.826Z,65.70
2023-03-07T18:54:45.758Z,66.10
2023-03-07T18:57:14.901Z,64.50
2023-03-07T18:59:41.747Z,65.20
2023-03-07T19:02:09.721Z,66.10
2023-03-07T19:04:39.244Z,64.20
2023-03-07T19:07:06.174Z,64.60
2023-03-07T19:09:33.042Z,66.80
2023-03-07T19:12:00.126Z,64.70
2023-03-07T19:14:27.009Z,65.40
2023-03-07T19:16:53.916Z,65.10
2023-03-07T19:19:20.794Z,67.20
2023-03-07T19:21:47.630Z,65.80
2023-03-07T19:24:14.510Z,65.40
2023-03-07T19:26:42.795Z,65.90
2023-03-07T19:29:12.136Z,66.50
2023-03-07T19:31:39.108Z,66.20
2023-03-07T19:34:06.406Z,65.80
2023-03-07T19:36:35.338Z,66.20
2023-03-07T19:39:02.305Z,65.90
2023-03-07T19:41:29.983Z,66.60
2023-03-07T19:43:57.282Z,67.00
2023-03-07T19:46:24.606Z,68.50
2023-03-07T19:48:51.501Z,66.80
2023-03-07T19:51:19.873Z,68.60
2023-03-07T19:53:46.753Z,67.50
2023-03-07T19:56:24.569Z,68.10
2023-03-07T19:58:51.677Z,68.10
2023-03-07T20:01:19.493Z,68.50
2023-03-07T20:03:46.542Z,70.70
2023-03-07T20:06:19.725Z,69.10
2023-03-07T20:08:53.520Z,68.80
2023-03-07T20:11:27.039Z,70.00
2023-03-07T20:13:54.834Z,69.50
2023-03-07T20:16:21.796Z,72.00
2023-03-07T20:18:50.516Z,70.80
2023-03-07T20:21:18.132Z,72.00
2023-03-07T20:23:45.469Z,75.00
2023-03-07T20:26:16.909Z,74.00
2023-03-07T20:28:43.955Z,75.80
2023-03-07T20:31:11.036Z,76.40
2023-03-07T20:33:44.982Z,77.50
2023-03-07T20:36:18.549Z,77.60
2023-03-07T20:38:52.898Z,79.90
2023-03-07T20:41:21.925Z,79.20
2023-03-07T20:43:49.958Z,79.80
2023-03-07T20:46:17.799Z,81.50
2023-03-07T20:48:44.916Z,82.10
2023-03-07T20:51:19.901Z,82.90
2023-03-07T20:53:51.437Z,82.80
2023-03-07T20:56:18.889Z,83.40
2023-03-07T20:58:45.957Z,84.60
2023-03-07T21:01:15.558Z,85.50
2023-03-07T21:03:42.619Z,86.40
2023-03-07T21:06:09.591Z,87.10
2023-03-07T21:08:36.780Z,89.10
2023-03-07T21:11:08.727Z,90.30
2023-03-07T21:13:37.442Z,89.50
2023-03-07T21:16:09.994Z,90.10
2023-03-07T21:18:37.549Z,90.20
2023-03-07T21:21:09.248Z,90.30
2023-03-07T21:23:36.203Z,90.90
2023-03-07T21:26:07.813Z,91.50
2023-03-07T21:28:34.953Z,92.10
2023-03-07T21:31:05.987Z,93.50
2023-03-07T21:33:33.108Z,93.70
2023-03-07T21:35:59.951Z,93.70
2023-03-07T21:38:26.772Z,95.10
2023-03-07T21:40:54.250Z,94.50
2023-03-07T21:43:21.570Z,94.80
2023-03-07T21:45:48.511Z,95.40
2023-03-07T21:48:17.030Z,95.90
2023-03-07T21:50:44.318Z,96.50
2023-03-07T21:53:11.378Z,97.00
2023-03-07T21:55:38.332Z,98.30
2023-03-07T21:58:05.221Z,98.40
2023-03-07T22:00:32.265Z,99.50
2023-03-07T22:02:59.113Z,99.90
2023-03-07T22:05:25.948Z,99.60
2023-03-07T22:07:52.776Z,99.90
2023-03-07T22:10:19.714Z,99.90
2023-03-07T22:12:46.540Z,99.90
2023-03-07T22:15:13.509Z,99.90
2023-03-07T22:17:40.330Z,99.90
2023-03-07T22:20:07.667Z,99.90
2023-03-07T22:22:34.502Z,99.90
2023-03-07T22:25:01.370Z,99.90
2023-03-07T22:27:28.175Z,99.90
2023-03-07T22:29:55.045Z,99.90
2023-03-07T22:32:22.144Z,99.90
2023-03-07T22:34:51.038Z,99.90
2023-03-07T22:37:18.001Z,99.90
2023-03-07T22:39:45.121Z,99.90
2023-03-07T22:42:12.057Z,99.90
2023-03-07T22:44:38.978Z,99.90
2023-03-07T22:47:06.202Z,99.90
2023-03-07T22:49:34.294Z,99.90
2023-03-07T22:52:01.228Z,99.90
2023-03-07T22:54:28.107Z,99.90
2023-03-07T22:56:55.146Z,99.90
2023-03-07T22:59:22.046Z,99.90
2023-03-07T23:01:49.029Z,99.90
2023-03-07T23:04:18.129Z,99.90
2023-03-07T23:06:45.189Z,99.90
2023-03-07T23:09:12.038Z,99.90
2023-03-07T23:11:39.900Z,99.90
2023-03-07T23:14:06.830Z,99.90
2023-03-07T23:16:36.227Z,99.90
2023-03-07T23:19:03.345Z,99.90
2023-03-07T23:21:31.193Z,99.90
2023-03-07T23:23:58.398Z,99.90
2023-03-07T23:26:30.333Z,99.90
2023-03-07T23:28:57.328Z,99.90
2023-03-07T23:31:34.331Z,99.90
2023-03-07T23:34:05.982Z,99.90
2023-03-07T23:36:32.846Z,99.90
2023-03-07T23:38:59.948Z,99.90
2023-03-07T23:41:27.133Z,99.90
2023-03-07T23:43:58.517Z,99.90
2023-03-07T23:46:25.560Z,99.90
2023-03-07T23:48:52.728Z,99.90
2023-03-07T23:51:19.925Z,99.90
2023-03-07T23:53:46.920Z,99.90
2023-03-07T23:56:13.960Z,99.90
2023-03-07T23:58:40.795Z,99.90
